Time;durP1;ratioP1;P1;durP2;ratioP2;P2;SDS_P1;SDS_P2;PMS_P1;PMS_P2;Temp;Humidity;BMP_temperature;BMP_pressure;BME280_temperature;BME280_humidity;BME280_pressure;Samples;Min_cycle;Max_cycle;Signal;HPM_P1;HPM_P2
2022/01/21 00:01:14;;;;;;;32.08;9.88;;;;;;;;;;6221288;23;20012;-90
2022/01/21 00:03:41;;;;;;;33.78;8.65;;;;;;;;;;6220933;23;20003;-91
2022/01/21 00:06:07;;;;;;;32.30;9.25;;;;;;;;;;6221068;23;20047;-90
2022/01/21 00:08:34;;;;;;;39.05;10.07;;;;;;;;;;6221289;23;20043;-89
2022/01/21 00:11:00;;;;;;;34.55;8.70;;;;;;;;;;6221365;23;20071;-91
2022/01/21 00:13:36;;;;;;;33.13;8.52;;;;;;;;;;6219547;23;20372;-89
2022/01/21 00:16:07;;;;;;;23.80;5.82;;;;;;;;;;6220847;23;20090;-90
2022/01/21 00:18:34;;;;;;;24.27;6.07;;;;;;;;;;6220925;23;20016;-89
2022/01/21 00:30:16;;;;;;;8.80;3.03;;;;;;;;;;6220949;23;20255;-89
2022/01/21 00:32:44;;;;;;;9.00;3.10;;;;;;;;;;6221436;23;20072;-90
2022/01/21 00:35:28;;;;;;;12.10;3.65;;;;;;;;;;6221211;23;20298;-89
2022/01/21 00:37:54;;;;;;;14.73;4.10;;;;;;;;;;6221090;23;20012;-90
2022/01/21 00:40:23;;;;;;;12.43;3.63;;;;;;;;;;6221255;23;20068;-90
2022/01/21 00:43:08;;;;;;;16.33;4.55;;;;;;;;;;6220038;23;20087;-91
2022/01/21 00:45:34;;;;;;;19.92;5.40;;;;;;;;;;6220191;23;20394;-90
2022/01/21 00:48:00;;;;;;;21.80;5.50;;;;;;;;;;6223173;23;20036;-89
2022/01/21 00:50:26;;;;;;;22.65;6.18;;;;;;;;;;6221147;23;20734;-90
2022/01/21 00:52:52;;;;;;;21.38;6.28;;;;;;;;;;6222767;23;20031;-90
2022/01/21 00:55:18;;;;;;;28.90;6.55;;;;;;;;;;6222575;23;19993;-89
2022/01/21 00:57:44;;;;;;;25.83;7.25;;;;;;;;;;6223030;23;20294;-90
2022/01/21 01:00:11;;;;;;;25.88;5.30;;;;;;;;;;6222931;23;20023;-89
2022/01/21 01:02:38;;;;;;;25.85;6.13;;;;;;;;;;6223200;23;20000;-89
2022/01/21 01:08:08;;;;;;;19.40;5.35;;;;;;;;;;6222523;23;20011;-91
2022/01/21 01:21:24;;;;;;;13.77;4.82;;;;;;;;;;6222613;23;20276;-89
2022/01/21 01:29:01;;;;;;;13.80;4.57;;;;;;;;;;6222688;23;20016;-89
2022/01/21 01:31:27;;;;;;;9.02;3.60;;;;;;;;;;6221220;23;20008;-88
2022/01/21 01:33:58;;;;;;;10.15;3.90;;;;;;;;;;6220752;23;20307;-89
2022/01/21 01:36:24;;;;;;;8.90;3.58;;;;;;;;;;6220847;23;20017;-90
2022/01/21 01:39:16;;;;;;;9.38;3.65;;;;;;;;;;6222719;23;20015;-89
2022/01/21 01:41:46;;;;;;;12.25;4.35;;;;;;;;;;6222000;23;20127;-90
2022/01/21 01:49:41;;;;;;;13.57;4.82;;;;;;;;;;6222076;23;20015;-90
2022/01/21 01:52:11;;;;;;;13.27;4.95;;;;;;;;;;6221295;23;20004;-89
2022/01/21 01:54:40;;;;;;;14.55;4.03;;;;;;;;;;6222590;23;20004;-90
2022/01/21 01:57:06;;;;;;;12.93;4.93;;;;;;;;;;6221897;23;20007;-90
2022/01/21 01:59:33;;;;;;;10.95;3.63;;;;;;;;;;6222096;23;20004;-89
2022/01/21 02:02:09;;;;;;;9.20;3.63;;;;;;;;;;6222452;23;20013;-89
2022/01/21 02:07:39;;;;;;;8.25;3.25;;;;;;;;;;6222301;23;20008;-89
2022/01/21 02:10:05;;;;;;;13.23;3.40;;;;;;;;;;6222071;23;19997;-90
2022/01/21 02:12:31;;;;;;;9.25;3.70;;;;;;;;;;6222511;23;20052;-89
2022/01/21 02:15:00;;;;;;;14.70;3.75;;;;;;;;;;6221553;22;20083;-90
2022/01/21 02:22:44;;;;;;;10.73;4.82;;;;;;;;;;6221881;23;20055;-90
2022/01/21 02:25:16;;;;;;;12.60;4.57;;;;;;;;;;6221885;23;20039;-89
2022/01/21 02:27:43;;;;;;;14.83;5.50;;;;;;;;;;6221943;23;20020;-89
2022/01/21 02:30:17;;;;;;;17.23;6.38;;;;;;;;;;6221869;23;20000;-89
2022/01/21 02:32:43;;;;;;;12.40;5.38;;;;;;;;;;6222184;23;20047;-89
2022/01/21 02:35:10;;;;;;;10.93;4.30;;;;;;;;;;6222070;23;20055;-89
2022/01/21 02:37:36;;;;;;;12.90;5.07;;;;;;;;;;6221378;23;20083;-89
2022/01/21 02:40:02;;;;;;;17.27;6.72;;;;;;;;;;6221736;23;20004;-89
2022/01/21 02:42:29;;;;;;;16.65;6.75;;;;;;;;;;6219879;23;20009;-90
2022/01/21 02:44:55;;;;;;;18.30;6.50;;;;;;;;;;6220515;23;20070;-90
2022/01/21 02:47:21;;;;;;;11.02;5.18;;;;;;;;;;6221695;23;20000;-89
2022/01/21 02:53:09;;;;;;;10.13;3.80;;;;;;;;;;6221638;23;20011;-89
2022/01/21 02:55:35;;;;;;;10.68;4.68;;;;;;;;;;6220392;23;20012;-90
2022/01/21 02:58:01;;;;;;;12.52;5.35;;;;;;;;;;6221587;23;20000;-89
2022/01/21 03:00:28;;;;;;;11.00;4.45;;;;;;;;;;6221568;23;20016;-89
2022/01/21 03:02:54;;;;;;;7.30;3.08;;;;;;;;;;6221446;23;20427;-89
2022/01/21 03:05:20;;;;;;;10.43;3.65;;;;;;;;;;6221889;23;20008;-90
2022/01/21 03:07:47;;;;;;;13.55;4.78;;;;;;;;;;6220360;23;20001;-89
2022/01/21 03:10:14;;;;;;;8.73;3.97;;;;;;;;;;6219200;23;20000;-89
2022/01/21 03:12:40;;;;;;;10.50;4.07;;;;;;;;;;6221408;23;20005;-89
2022/01/21 03:15:07;;;;;;;9.45;3.60;;;;;;;;;;6218975;23;20027;-89
2022/01/21 03:17:33;;;;;;;11.73;3.22;;;;;;;;;;6221739;23;20008;-89
2022/01/21 03:20:00;;;;;;;10.20;3.95;;;;;;;;;;6220325;23;20292;-90
2022/01/21 03:22:26;;;;;;;14.05;3.90;;;;;;;;;;6221613;23;20008;-89
2022/01/21 03:24:52;;;;;;;10.25;3.03;;;;;;;;;;6221513;23;20005;-88
2022/01/21 03:27:19;;;;;;;12.07;3.58;;;;;;;;;;6221327;23;19997;-89
2022/01/21 03:29:45;;;;;;;9.73;3.25;;;;;;;;;;6221667;23;19996;-89
2022/01/21 03:32:11;;;;;;;8.38;3.60;;;;;;;;;;6219508;23;20032;-89
2022/01/21 03:34:37;;;;;;;9.65;4.03;;;;;;;;;;6219959;23;20241;-89
2022/01/21 03:40:35;;;;;;;10.15;3.63;;;;;;;;;;6221247;23;20054;-89
2022/01/21 03:43:01;;;;;;;8.57;4.18;;;;;;;;;;6220932;23;20008;-90
2022/01/21 03:45:27;;;;;;;8.00;3.40;;;;;;;;;;6221117;23;20080;-89
2022/01/21 03:47:54;;;;;;;7.85;2.72;;;;;;;;;;6219916;23;20011;-90
2022/01/21 03:50:30;;;;;;;6.78;2.90;;;;;;;;;;6221409;23;20291;-89
2022/01/21 03:52:57;;;;;;;10.05;3.50;;;;;;;;;;6221747;23;19997;-89
2022/01/21 03:55:23;;;;;;;7.78;2.90;;;;;;;;;;6219382;23;20008;-88
2022/01/21 03:57:49;;;;;;;10.27;2.60;;;;;;;;;;6219747;23;20003;-89
2022/01/21 04:00:17;;;;;;;11.00;3.00;;;;;;;;;;6219693;23;20005;-89
2022/01/21 04:02:44;;;;;;;6.10;3.10;;;;;;;;;;6194437;23;20005;-89
2022/01/21 04:05:10;;;;;;;28.98;12.80;;;;;;;;;;6221271;23;20011;-89
2022/01/21 04:07:36;;;;;;;44.40;19.85;;;;;;;;;;6219488;23;20371;-89
2022/01/21 04:10:04;;;;;;;16.35;8.18;;;;;;;;;;6221449;23;20067;-89
2022/01/21 04:12:30;;;;;;;47.40;18.30;;;;;;;;;;6219727;23;20008;-89
2022/01/21 04:14:58;;;;;;;21.48;9.15;;;;;;;;;;6220564;23;20024;-89
2022/01/21 04:17:24;;;;;;;11.38;4.43;;;;;;;;;;6219809;23;20053;-89
2022/01/21 04:19:50;;;;;;;10.15;4.25;;;;;;;;;;6220180;23;20008;-89
2022/01/21 04:25:20;;;;;;;35.47;14.73;;;;;;;;;;6222995;23;20023;-89
2022/01/21 04:27:46;;;;;;;23.48;10.23;;;;;;;;;;6223436;23;20028;-90
2022/01/21 04:30:13;;;;;;;14.52;7.22;;;;;;;;;;6222894;23;20003;-89
2022/01/21 04:32:39;;;;;;;26.55;10.27;;;;;;;;;;6221720;23;20028;-90
2022/01/21 04:35:05;;;;;;;14.35;6.18;;;;;;;;;;6222121;23;20032;-90
2022/01/21 04:37:31;;;;;;;10.43;4.82;;;;;;;;;;6222771;23;20386;-90
2022/01/21 04:40:06;;;;;;;9.15;3.30;;;;;;;;;;6222935;23;20355;-89
2022/01/21 04:48:01;;;;;;;11.05;3.88;;;;;;;;;;6222816;23;20020;-90
2022/01/21 04:50:32;;;;;;;10.30;3.72;;;;;;;;;;6222654;23;20001;-90
2022/01/21 04:52:58;;;;;;;8.93;3.00;;;;;;;;;;6221278;23;20067;-90
2022/01/21 04:55:24;;;;;;;11.52;3.75;;;;;;;;;;6222690;23;20001;-91
2022/01/21 04:57:50;;;;;;;11.35;3.78;;;;;;;;;;6221592;23;20005;-91
2022/01/21 05:00:16;;;;;;;8.63;3.55;;;;;;;;;;6220799;23;20005;-91
2022/01/21 05:02:42;;;;;;;10.20;3.50;;;;;;;;;;6222999;23;20252;-91
2022/01/21 05:05:09;;;;;;;7.50;3.42;;;;;;;;;;6222809;23;20008;-89
2022/01/21 05:07:38;;;;;;;9.23;3.80;;;;;;;;;;6221234;23;20039;-90
2022/01/21 05:10:04;;;;;;;7.70;3.28;;;;;;;;;;6221495;23;20035;-90
2022/01/21 05:12:30;;;;;;;5.50;2.40;;;;;;;;;;6222303;23;20004;-90
2022/01/21 05:17:24;;;;;;;9.38;3.70;;;;;;;;;;6232830;23;20367;-89
2022/01/21 05:19:50;;;;;;;8.25;3.53;;;;;;;;;;6222235;23;20009;-90
2022/01/21 05:25:20;;;;;;;6.70;2.90;;;;;;;;;;6222391;23;20020;-91
2022/01/21 05:27:48;;;;;;;8.85;3.75;;;;;;;;;;6222742;23;20026;-90
2022/01/21 05:30:15;;;;;;;9.55;3.05;;;;;;;;;;6222224;23;20004;-90
2022/01/21 05:32:42;;;;;;;8.30;3.03;;;;;;;;;;6221722;23;20004;-90
2022/01/21 05:35:08;;;;;;;7.60;3.90;;;;;;;;;;6220909;23;20008;-91
2022/01/21 05:37:35;;;;;;;15.68;6.78;;;;;;;;;;6222501;23;20005;-91
2022/01/21 05:40:02;;;;;;;14.70;7.30;;;;;;;;;;6222585;23;20267;-90
2022/01/21 05:42:28;;;;;;;12.93;6.97;;;;;;;;;;6222169;23;20007;-89
2022/01/21 05:47:21;;;;;;;18.40;6.93;;;;;;;;;;6232537;23;20425;-91
2022/01/21 05:49:47;;;;;;;17.77;7.68;;;;;;;;;;6222646;23;20004;-91
2022/01/21 05:55:17;;;;;;;10.18;4.63;;;;;;;;;;6222060;23;20054;-89
2022/01/21 05:57:44;;;;;;;16.85;5.63;;;;;;;;;;6222228;23;20007;-89
2022/01/21 06:00:10;;;;;;;22.63;9.13;;;;;;;;;;6221059;23;20140;-90
2022/01/21 06:02:37;;;;;;;22.30;9.95;;;;;;;;;;6220706;23;20434;-91
2022/01/21 06:05:03;;;;;;;22.20;10.48;;;;;;;;;;6222220;23;20083;-91
2022/01/21 06:10:33;;;;;;;14.00;6.82;;;;;;;;;;6222071;23;20039;-90
2022/01/21 06:12:59;;;;;;;14.68;6.70;;;;;;;;;;6220584;23;20005;-91
2022/01/21 06:15:25;;;;;;;12.10;6.07;;;;;;;;;;6220311;23;20099;-90
2022/01/21 06:17:51;;;;;;;10.73;5.43;;;;;;;;;;6222215;23;20012;-90
2022/01/21 06:20:18;;;;;;;12.05;4.50;;;;;;;;;;6220254;23;20009;-90
2022/01/21 06:23:02;;;;;;;10.20;4.88;;;;;;;;;;6222344;23;20008;-91
2022/01/21 06:25:29;;;;;;;11.02;5.35;;;;;;;;;;6221832;23;20275;-90
2022/01/21 06:27:55;;;;;;;11.40;6.30;;;;;;;;;;6222049;23;20047;-90
2022/01/21 06:30:22;;;;;;;20.30;9.60;;;;;;;;;;6220515;23;20363;-90
2022/01/21 06:32:48;;;;;;;19.92;9.23;;;;;;;;;;6220431;23;20032;-89
2022/01/21 06:35:14;;;;;;;29.52;11.35;;;;;;;;;;6219942;23;20032;-91
2022/01/21 06:40:43;;;;;;;46.95;17.65;;;;;;;;;;6221573;23;20370;-90
2022/01/21 06:43:09;;;;;;;44.63;17.10;;;;;;;;;;6221420;23;20009;-89
2022/01/21 06:45:35;;;;;;;47.45;18.58;;;;;;;;;;6221617;23;19996;-90
2022/01/21 06:48:04;;;;;;;38.17;14.98;;;;;;;;;;6221510;23;20013;-90
2022/01/21 06:50:31;;;;;;;41.33;18.27;;;;;;;;;;6221600;23;20008;-91
2022/01/21 06:52:57;;;;;;;79.40;28.17;;;;;;;;;;6221333;23;20443;-91
2022/01/21 06:55:23;;;;;;;94.38;40.45;;;;;;;;;;6222017;23;20011;-91
2022/01/21 06:57:49;;;;;;;50.35;27.27;;;;;;;;;;6219656;23;20000;-91
2022/01/21 07:00:24;;;;;;;25.27;13.43;;;;;;;;;;6221768;23;20259;-91
2022/01/21 07:02:51;;;;;;;19.85;9.68;;;;;;;;;;6221923;23;20079;-90
2022/01/21 07:05:19;;;;;;;26.05;10.60;;;;;;;;;;6221579;23;20015;-91
2022/01/21 14:02:12;;;;;;;20.92;8.23;;;;;;;;;;6223104;23;20398;-87
2022/01/21 14:04:39;;;;;;;19.98;8.30;;;;;;;;;;6195055;23;20023;-86
2022/01/21 14:18:46;;;;;;;26.95;9.55;;;;;;;;;;6222033;23;20372;-88
2022/01/21 15:11:57;;;;;;;12.38;4.15;;;;;;;;;;6189801;23;20032;-88
2022/01/21 15:14:35;;;;;;;28.75;10.13;;;;;;;;;;6191339;23;20084;-87
2022/01/21 15:17:03;;;;;;;47.50;18.33;;;;;;;;;;6221491;23;20233;-88
2022/01/21 15:19:40;;;;;;;31.98;11.63;;;;;;;;;;6221689;23;20046;-86
2022/01/21 15:22:09;;;;;;;32.15;12.35;;;;;;;;;;6194944;23;20007;-87
2022/01/21 15:27:47;;;;;;;27.23;12.63;;;;;;;;;;6189876;23;20025;-88
2022/01/21 15:30:14;;;;;;;31.65;13.00;;;;;;;;;;6189831;23;20013;-88
2022/01/21 15:32:40;;;;;;;26.23;10.15;;;;;;;;;;6190720;23;20241;-89
2022/01/21 15:35:06;;;;;;;36.17;11.43;;;;;;;;;;6190559;23;20033;-89
2022/01/21 15:37:32;;;;;;;26.30;9.27;;;;;;;;;;6191180;23;20001;-88
2022/01/21 15:39:59;;;;;;;32.67;11.25;;;;;;;;;;6190709;23;20009;-88
2022/01/21 15:42:25;;;;;;;34.05;11.73;;;;;;;;;;6194872;23;20411;-88
2022/01/21 15:44:54;;;;;;;31.23;10.82;;;;;;;;;;6221081;23;20000;-88
2022/01/21 15:47:20;;;;;;;32.78;12.02;;;;;;;;;;6220636;23;20016;-88
2022/01/21 15:49:46;;;;;;;34.65;12.43;;;;;;;;;;6194619;23;20008;-89
2022/01/21 15:52:13;;;;;;;27.65;8.98;;;;;;;;;;6221356;23;19997;-89
2022/01/21 15:54:40;;;;;;;31.58;11.60;;;;;;;;;;6194748;23;20004;-89
2022/01/21 15:57:06;;;;;;;31.77;10.52;;;;;;;;;;6221001;23;20091;-89
2022/01/21 15:59:33;;;;;;;59.47;19.75;;;;;;;;;;6220838;23;20004;-89
2022/01/21 16:02:00;;;;;;;33.33;11.68;;;;;;;;;;6194591;23;20252;-88
2022/01/21 16:04:26;;;;;;;20.33;7.07;;;;;;;;;;6220583;23;20001;-90
2022/01/21 16:06:52;;;;;;;13.27;5.30;;;;;;;;;;6220832;23;20027;-90
2022/01/21 16:12:22;;;;;;;7.10;3.92;;;;;;;;;;6220892;23;20429;-88
2022/01/21 16:14:48;;;;;;;10.35;4.30;;;;;;;;;;6221127;23;20100;-89
2022/01/21 16:17:14;;;;;;;12.45;3.60;;;;;;;;;;6193872;23;20084;-89
2022/01/21 16:19:42;;;;;;;13.30;4.43;;;;;;;;;;6194441;23;20005;-90
2022/01/21 16:22:09;;;;;;;15.10;4.45;;;;;;;;;;6194673;23;20087;-88
2022/01/21 16:27:38;;;;;;;13.05;3.97;;;;;;;;;;6220884;23;20031;-87
2022/01/21 16:30:06;;;;;;;13.60;4.65;;;;;;;;;;6219991;23;20008;-88
2022/01/21 16:35:20;;;;;;;14.73;5.03;;;;;;;;;;6220878;23;20011;-89
2022/01/21 18:39:48;;;;;;;35.35;12.90;;;;;;;;;;6217987;23;20044;-86
2022/01/21 19:01:59;;;;;;;38.55;15.50;;;;;;;;;;6220789;23;20335;-88
2022/01/21 19:04:25;;;;;;;44.70;16.42;;;;;;;;;;6195116;23;20023;-89
2022/01/21 19:09:36;;;;;;;39.08;17.50;;;;;;;;;;6221818;23;20011;-89
2022/01/21 19:12:03;;;;;;;66.40;25.80;;;;;;;;;;6195010;23;20001;-89
2022/01/21 19:14:29;;;;;;;67.35;25.92;;;;;;;;;;6194608;23;20004;-89
2022/01/21 19:31:01;;;;;;;62.72;20.67;;;;;;;;;;6221185;23;20122;-90
2022/01/21 19:33:28;;;;;;;141.13;43.55;;;;;;;;;;6195010;23;20005;-89
2022/01/21 19:41:41;;;;;;;61.00;21.70;;;;;;;;;;6189150;23;20025;-89
2022/01/21 19:44:07;;;;;;;55.47;20.80;;;;;;;;;;6194444;23;20032;-89
2022/01/21 19:46:39;;;;;;;83.57;31.58;;;;;;;;;;6194752;23;20004;-89
2022/01/21 19:49:05;;;;;;;92.90;33.33;;;;;;;;;;6221218;23;20255;-90
2022/01/21 19:51:31;;;;;;;92.88;34.47;;;;;;;;;;6220567;23;20008;-90
2022/01/21 19:53:57;;;;;;;66.20;27.33;;;;;;;;;;6221390;23;20001;-88
2022/01/21 19:56:25;;;;;;;47.33;20.73;;;;;;;;;;6220829;23;20001;-90
